Sunday, May 24, 2015, 3:08 PM EDT

KIPT, Williamsport-lycoming County

Location: Montoursville, PA, United States Lat: 41.25
Local Time: 3:08 PM EDT (19:08 GMT) Lon: -76.917
Time Zone: US/Eastern Elev: 528 ft

Show me the last for .
Show Decoded

2015-05-24 14:54 METAR KIPT 241854Z 24004KT 10SM CLR 27/04 A3024 RMK AO2 SLP241 T02670044 =
2015-05-24 13:54 METAR KIPT 241754Z 21006KT 10SM CLR 26/07 A3027 RMK AO2 SLP250 T02560067 10256
                 20089 58022 =
2015-05-24 12:54 METAR KIPT 241654Z 17004KT 10SM CLR 24/07 A3029 RMK AO2 SLP257 T02390072 =
2015-05-24 11:54 METAR KIPT 241554Z 12003KT 10SM CLR 20/06 A3032 RMK AO2 SLP268 T02000061 =
2015-05-24 09:54 METAR KIPT 241354Z 00000KT 10SM CLR 14/04 A3037 =
2015-05-24 08:54 METAR KIPT 241254Z 26005KT 10SM CLR 12/04 A3039 RMK AO2 SLP290 T01170044 =
2015-05-24 07:54 METAR KIPT 241154Z 00000KT 10SM CLR 09/05 A3039 RMK AO2 SLP293 T00890050 10089
                 20039 53013 =
2015-05-24 06:54 METAR KIPT 241054Z 35003KT 10SM CLR 06/03 A3038 RMK AO2 SLP287 T00610033 =
2015-05-24 05:54 METAR KIPT 240954Z AUTO 33003KT 10SM CLR 04/02 A3037 =
2015-05-24 04:54 METAR KIPT 240854Z AUTO 00000KT 10SM CLR 04/03 A3035 RMK AO2 SLP280 T00440028
                 50000 =
2015-05-24 03:54 METAR KIPT 240754Z AUTO 30003KT 10SM CLR 06/03 A3036 RMK AO2 SLP280 T00560028 =
2015-05-24 02:54 METAR KIPT 240654Z AUTO 00000KT 10SM CLR 06/03 A3036 RMK AO2 SLP281 T00610033 =
2015-05-24 01:54 METAR KIPT 240554Z AUTO 00000KT 10SM CLR 07/03 A3035 RMK AO2 SLP280 T00720033
                 10189 20067 51005 =
2015-05-24 00:54 METAR KIPT 240454Z AUTO 00000KT 10SM CLR 08/04 A3035 RMK AO2 SLP278 T00830039
                 402220028 =
2015-05-23 23:54 METAR KIPT 240354Z AUTO 00000KT 10SM CLR 09/04 A3034 =
2015-05-23 22:54 METAR KIPT 240254Z AUTO 35005KT 10SM CLR 11/04 A3034 RMK AO2 SLP274 T01060039
                 53013 =
2015-05-23 21:54 METAR KIPT 240154Z 36003KT 10SM CLR 13/03 A3032 RMK AO2 SLP268 T01280033 =
2015-05-23 20:54 METAR KIPT 240054Z 12004KT 10SM CLR 17/00 A3030 =
2015-05-23 19:54 METAR KIPT 232354Z 00000KT 10SM CLR 19/M01 A3030 RMK AO2 SLP260 60000 T01941006
                 10222 20172 56011 =
2015-05-23 18:54 METAR KIPT 232254Z VRB06KT 10SM CLR 21/M02 A3031 RMK AO2 SLP264 T02111022 =
2015-05-23 17:54 METAR KIPT 232154Z VRB05KT 10SM CLR 22/M03 A3032 RMK AO2 RAE2059 SLP267 P0000
                 T02171033 =
2015-05-23 16:54 METAR KIPT 232054Z 24008KT 10SM -RA CLR 21/M03 A3033 RMK AO2 RAB32 SLP272 P0000
                 60000 T02111033 56023 =
2015-05-23 15:54 METAR KIPT 231954Z 28008KT 10SM CLR 21/M03 A3035 RMK AO2 RAB25E35 SLP279 P0000
                 T02061033 =

Support USWX by starting your Amazon purchase here.